Pagina principale
METAR-TAF:

METAR-TAF

Aeroporti :

Ancona, Italia

latitudine: 43-37N, longitudine: 013-22E, altezza: 12 m

Osservazione

Il bollettino è stato emesso 7 ore e 5 minuti fa, alle 04:50 UTC
Vento 4 kt da sud
Temperature 22°C
Umidità 69%
Pressione 1014 hPa
Visibilità 10 km o più
nessuna nube inferiore a 1500 m e nessun cumulonembo

METAR: LIPY 210450Z 17004KT CAVOK 22/16 Q1014

Ora: 13:55 (11:55 UTC)

Previsione

Il bollettino è stato emesso 6 ore e 55 minuti fa, alle 05:00 UTC
Previsione valida dal 21 alle 06 UTC al 22 alle 06 UTC
Vento 5 kt da direzioni variabili
Visibilità 10 km o più
nessuna nube inferiore a 1500 m e nessun cumulonembo
Evoluzione graduale
dal 21 alle 09 UTC al 21 alle 11 UTC
Vento 10 kt da nord/nord-est
Evoluzione graduale
dal 21 alle 16 UTC al 21 alle 18 UTC
Vento 5 kt da direzioni variabili

TAF: LIPY 210500Z 2106/2206 VRB05KT CAVOK BECMG 2109/2111 02010KT BECMG 2116/2118 VRB05KT

Osservazioni e previsioni meteorologiche di più di 4000 aeroporti (messaggi METAR e TAF).

Le stazioni disponibili sono rappresentate dai dischi gialli e rossi sulla carta.

Puntare il mouse per vedere il nome della stazione.

Clicca sopra per visualizzare le osservazioni e previsioni meteorologiche.

Per cambiare la mappa : fare clic sui pulsanti verdi con una croce nera per ingrandire, il pulsante verde con un trattino per diminuire, o sulla freccia verde per le mappe adiacenti.


METAR-TAF: